sensor_id;sensor_type;location;lat;lon;timestamp;temperature;humidity
75685;HTU21D;64298;46.050;38.164;2023-06-26T00:00:06;24.11;56.98
75685;HTU21D;64298;46.050;38.164;2023-06-26T00:02:33;24.04;57.09
75685;HTU21D;64298;46.050;38.164;2023-06-26T00:04:59;23.99;57.16
75685;HTU21D;64298;46.050;38.164;2023-06-26T00:07:28;23.96;57.26
75685;HTU21D;64298;46.050;38.164;2023-06-26T00:09:56;23.91;57.33
75685;HTU21D;64298;46.050;38.164;2023-06-26T00:12:22;23.86;57.42
75685;HTU21D;64298;46.050;38.164;2023-06-26T00:14:48;23.84;57.46
75685;HTU21D;64298;46.050;38.164;2023-06-26T00:17:14;23.83;57.48
75685;HTU21D;64298;46.050;38.164;2023-06-26T00:19:40;23.80;57.55
75685;HTU21D;64298;46.050;38.164;2023-06-26T00:22:06;23.77;57.60
75685;HTU21D;64298;46.050;38.164;2023-06-26T00:24:31;23.72;57.71
75685;HTU21D;64298;46.050;38.164;2023-06-26T00:26:57;23.68;57.79
75685;HTU21D;64298;46.050;38.164;2023-06-26T00:29:24;23.65;57.84
75685;HTU21D;64298;46.050;38.164;2023-06-26T00:31:50;23.64;57.88
75685;HTU21D;64298;46.050;38.164;2023-06-26T00:34:16;23.65;57.91
75685;HTU21D;64298;46.050;38.164;2023-06-26T00:36:43;23.62;57.93
75685;HTU21D;64298;46.050;38.164;2023-06-26T00:39:09;23.67;57.97
75685;HTU21D;64298;46.050;38.164;2023-06-26T00:41:39;23.69;58.01
75685;HTU21D;64298;46.050;38.164;2023-06-26T00:44:05;23.72;58.03
75685;HTU21D;64298;46.050;38.164;2023-06-26T00:46:32;23.70;58.13
75685;HTU21D;64298;46.050;38.164;2023-06-26T00:49:03;23.70;58.27
75685;HTU21D;64298;46.050;38.164;2023-06-26T00:51:30;23.72;58.26
75685;HTU21D;64298;46.050;38.164;2023-06-26T00:53:57;23.77;58.26
75685;HTU21D;64298;46.050;38.164;2023-06-26T00:56:24;23.81;58.26
75685;HTU21D;64298;46.050;38.164;2023-06-26T00:58:50;23.83;58.32
75685;HTU21D;64298;46.050;38.164;2023-06-26T01:01:16;23.85;58.33
75685;HTU21D;64298;46.050;38.164;2023-06-26T01:03:48;23.88;58.41
75685;HTU21D;64298;46.050;38.164;2023-06-26T01:06:19;23.92;58.35
75685;HTU21D;64298;46.050;38.164;2023-06-26T01:08:45;23.96;58.37
75685;HTU21D;64298;46.050;38.164;2023-06-26T01:11:13;23.96;58.45
75685;HTU21D;64298;46.050;38.164;2023-06-26T01:13:41;23.96;58.48
75685;HTU21D;64298;46.050;38.164;2023-06-26T01:16:08;23.99;58.54
75685;HTU21D;64298;46.050;38.164;2023-06-26T01:18:35;24.02;58.54
75685;HTU21D;64298;46.050;38.164;2023-06-26T01:21:03;24.08;58.54
75685;HTU21D;64298;46.050;38.164;2023-06-26T01:26:30;24.06;58.66
75685;HTU21D;64298;46.050;38.164;2023-06-26T01:29:02;24.05;58.81
75685;HTU21D;64298;46.050;38.164;2023-06-26T01:31:31;24.09;58.89
75685;HTU21D;64298;46.050;38.164;2023-06-26T01:34:00;24.08;59.08
75685;HTU21D;64298;46.050;38.164;2023-06-26T01:36:27;24.03;59.25
75685;HTU21D;64298;46.050;38.164;2023-06-26T01:38:52;24.03;59.39
75685;HTU21D;64298;46.050;38.164;2023-06-26T01:41:19;24.06;59.43
75685;HTU21D;64298;46.050;38.164;2023-06-26T01:46:25;24.10;59.51
75685;HTU21D;64298;46.050;38.164;2023-06-26T01:55:26;24.06;59.72
75685;HTU21D;64298;46.050;38.164;2023-06-26T01:57:56;24.02;59.82
75685;HTU21D;64298;46.050;38.164;2023-06-26T02:00:23;24.02;59.94
75685;HTU21D;64298;46.050;38.164;2023-06-26T02:02:49;24.04;59.72
75685;HTU21D;64298;46.050;38.164;2023-06-26T02:05:15;24.02;59.81
75685;HTU21D;64298;46.050;38.164;2023-06-26T02:07:42;24.02;59.99
75685;HTU21D;64298;46.050;38.164;2023-06-26T02:10:09;24.04;60.07
75685;HTU21D;64298;46.050;38.164;2023-06-26T02:12:36;24.04;60.12
75685;HTU21D;64298;46.050;38.164;2023-06-26T02:15:03;24.06;59.93
75685;HTU21D;64298;46.050;38.164;2023-06-26T02:17:30;24.06;60.05
75685;HTU21D;64298;46.050;38.164;2023-06-26T02:19:56;24.10;60.15
75685;HTU21D;64298;46.050;38.164;2023-06-26T02:22:22;24.13;60.21
75685;HTU21D;64298;46.050;38.164;2023-06-26T02:24:48;24.16;60.28
75685;HTU21D;64298;46.050;38.164;2023-06-26T02:27:14;24.18;60.35
75685;HTU21D;64298;46.050;38.164;2023-06-26T02:29:40;24.24;60.41
75685;HTU21D;64298;46.050;38.164;2023-06-26T02:32:07;24.29;60.16
75685;HTU21D;64298;46.050;38.164;2023-06-26T02:34:34;24.28;60.26
75685;HTU21D;64298;46.050;38.164;2023-06-26T02:37:01;24.27;60.45
75685;HTU21D;64298;46.050;38.164;2023-06-26T02:39:27;24.31;60.58
75685;HTU21D;64298;46.050;38.164;2023-06-26T02:41:54;24.35;60.64
75685;HTU21D;64298;46.050;38.164;2023-06-26T02:44:22;24.40;60.70
75685;HTU21D;64298;46.050;38.164;2023-06-26T02:46:48;24.41;60.79
75685;HTU21D;64298;46.050;38.164;2023-06-26T02:49:14;24.43;60.86
75685;HTU21D;64298;46.050;38.164;2023-06-26T02:51:41;24.46;60.95
75685;HTU21D;64298;46.050;38.164;2023-06-26T02:54:23;24.50;60.99
75685;HTU21D;64298;46.050;38.164;2023-06-26T02:56:53;24.55;61.00
75685;HTU21D;64298;46.050;38.164;2023-06-26T02:59:24;24.55;61.10
75685;HTU21D;64298;46.050;38.164;2023-06-26T03:01:51;24.59;61.15
75685;HTU21D;64298;46.050;38.164;2023-06-26T03:04:17;24.55;61.28
75685;HTU21D;64298;46.050;38.164;2023-06-26T03:06:43;24.47;61.67
75685;HTU21D;64298;46.050;38.164;2023-06-26T03:09:10;24.46;61.80
75685;HTU21D;64298;46.050;38.164;2023-06-26T03:11:36;24.47;61.79
75685;HTU21D;64298;46.050;38.164;2023-06-26T03:14:02;24.49;61.87
75685;HTU21D;64298;46.050;38.164;2023-06-26T03:16:28;24.49;61.99
75685;HTU21D;64298;46.050;38.164;2023-06-26T03:18:54;24.48;62.08
75685;HTU21D;64298;46.050;38.164;2023-06-26T03:21:20;24.42;62.52
75685;HTU21D;64298;46.050;38.164;2023-06-26T03:23:46;24.35;63.01
75685;HTU21D;64298;46.050;38.164;2023-06-26T03:26:12;24.34;63.05
75685;HTU21D;64298;46.050;38.164;2023-06-26T03:28:40;24.38;63.00
75685;HTU21D;64298;46.050;38.164;2023-06-26T03:31:08;24.41;62.91
75685;HTU21D;64298;46.050;38.164;2023-06-26T03:33:34;24.42;62.94
75685;HTU21D;64298;46.050;38.164;2023-06-26T03:36:19;24.42;62.95
75685;HTU21D;64298;46.050;38.164;2023-06-26T03:38:45;24.42;63.06
75685;HTU21D;64298;46.050;38.164;2023-06-26T03:41:11;24.40;63.33
75685;HTU21D;64298;46.050;38.164;2023-06-26T03:43:56;24.41;63.51
75685;HTU21D;64298;46.050;38.164;2023-06-26T03:46:28;24.39;63.63
75685;HTU21D;64298;46.050;38.164;2023-06-26T03:48:54;24.39;63.82
75685;HTU21D;64298;46.050;38.164;2023-06-26T03:51:20;24.40;63.84
75685;HTU21D;64298;46.050;38.164;2023-06-26T03:53:46;24.43;63.84
75685;HTU21D;64298;46.050;38.164;2023-06-26T03:56:12;24.43;64.03
75685;HTU21D;64298;46.050;38.164;2023-06-26T03:58:58;24.40;64.22
75685;HTU21D;64298;46.050;38.164;2023-06-26T04:01:25;24.40;64.37
75685;HTU21D;64298;46.050;38.164;2023-06-26T04:03:51;24.40;64.51
75685;HTU21D;64298;46.050;38.164;2023-06-26T04:06:17;24.46;64.56
75685;HTU21D;64298;46.050;38.164;2023-06-26T04:08:43;24.46;64.63
75685;HTU21D;64298;46.050;38.164;2023-06-26T04:11:09;24.49;64.69
75685;HTU21D;64298;46.050;38.164;2023-06-26T04:13:35;24.54;64.79
75685;HTU21D;64298;46.050;38.164;2023-06-26T04:16:01;24.60;64.79
75685;HTU21D;64298;46.050;38.164;2023-06-26T04:18:27;24.65;64.86
75685;HTU21D;64298;46.050;38.164;2023-06-26T04:21:09;24.65;65.59
75685;HTU21D;64298;46.050;38.164;2023-06-26T04:23:38;24.66;65.59
75685;HTU21D;64298;46.050;38.164;2023-06-26T04:26:04;24.64;65.74
75685;HTU21D;64298;46.050;38.164;2023-06-26T04:28:31;24.60;65.71
75685;HTU21D;64298;46.050;38.164;2023-06-26T04:30:57;24.63;65.50
75685;HTU21D;64298;46.050;38.164;2023-06-26T04:33:24;24.65;65.51
75685;HTU21D;64298;46.050;38.164;2023-06-26T04:35:52;24.69;65.54
75685;HTU21D;64298;46.050;38.164;2023-06-26T04:38:19;24.77;65.38
75685;HTU21D;64298;46.050;38.164;2023-06-26T04:40:45;24.87;65.09
75685;HTU21D;64298;46.050;38.164;2023-06-26T04:43:29;24.97;64.99
75685;HTU21D;64298;46.050;38.164;2023-06-26T04:45:56;25.04;65.12
75685;HTU21D;64298;46.050;38.164;2023-06-26T04:48:22;25.09;65.11
75685;HTU21D;64298;46.050;38.164;2023-06-26T04:50:49;25.18;65.04
75685;HTU21D;64298;46.050;38.164;2023-06-26T04:53:21;25.29;64.76
75685;HTU21D;64298;46.050;38.164;2023-06-26T04:55:47;25.40;64.48
75685;HTU21D;64298;46.050;38.164;2023-06-26T04:58:13;25.50;64.33
75685;HTU21D;64298;46.050;38.164;2023-06-26T05:00:39;25.58;64.18
75685;HTU21D;64298;46.050;38.164;2023-06-26T05:03:16;25.63;64.21
75685;HTU21D;64298;46.050;38.164;2023-06-26T05:05:43;25.66;64.14
75685;HTU21D;64298;46.050;38.164;2023-06-26T05:08:22;25.71;64.08
75685;HTU21D;64298;46.050;38.164;2023-06-26T05:10:48;25.83;63.85
75685;HTU21D;64298;46.050;38.164;2023-06-26T05:13:14;25.92;63.67
75685;HTU21D;64298;46.050;38.164;2023-06-26T05:15:45;25.97;63.68
75685;HTU21D;64298;46.050;38.164;2023-06-26T05:18:11;26.05;63.67
75685;HTU21D;64298;46.050;38.164;2023-06-26T05:20:38;26.11;63.59
75685;HTU21D;64298;46.050;38.164;2023-06-26T05:23:04;26.17;63.47
75685;HTU21D;64298;46.050;38.164;2023-06-26T05:25:31;26.23;63.31
75685;HTU21D;64298;46.050;38.164;2023-06-26T05:27:58;26.30;63.05
75685;HTU21D;64298;46.050;38.164;2023-06-26T05:30:42;26.38;62.63
75685;HTU21D;64298;46.050;38.164;2023-06-26T05:33:11;26.46;62.50
75685;HTU21D;64298;46.050;38.164;2023-06-26T05:35:39;26.52;62.21
75685;HTU21D;64298;46.050;38.164;2023-06-26T05:38:05;26.58;62.15
75685;HTU21D;64298;46.050;38.164;2023-06-26T05:40:31;26.67;62.05
75685;HTU21D;64298;46.050;38.164;2023-06-26T05:42:57;26.73;62.21
75685;HTU21D;64298;46.050;38.164;2023-06-26T05:45:23;26.82;62.11
75685;HTU21D;64298;46.050;38.164;2023-06-26T05:47:51;26.86;61.94
75685;HTU21D;64298;46.050;38.164;2023-06-26T05:50:18;26.91;62.05
75685;HTU21D;64298;46.050;38.164;2023-06-26T05:52:45;26.95;62.05
75685;HTU21D;64298;46.050;38.164;2023-06-26T05:55:12;27.04;61.92
75685;HTU21D;64298;46.050;38.164;2023-06-26T05:57:40;27.08;61.86
75685;HTU21D;64298;46.050;38.164;2023-06-26T06:00:07;27.12;61.92
75685;HTU21D;64298;46.050;38.164;2023-06-26T06:02:39;27.13;61.98
75685;HTU21D;64298;46.050;38.164;2023-06-26T06:05:06;27.19;61.82
75685;HTU21D;64298;46.050;38.164;2023-06-26T06:07:32;27.23;61.71
75685;HTU21D;64298;46.050;38.164;2023-06-26T06:09:59;27.29;61.57
75685;HTU21D;64298;46.050;38.164;2023-06-26T06:12:26;27.37;61.41
75685;HTU21D;64298;46.050;38.164;2023-06-26T06:14:53;27.42;61.32
75685;HTU21D;64298;46.050;38.164;2023-06-26T06:17:20;27.46;61.28
75685;HTU21D;64298;46.050;38.164;2023-06-26T06:19:46;27.51;61.15
75685;HTU21D;64298;46.050;38.164;2023-06-26T06:22:12;27.57;61.04
75685;HTU21D;64298;46.050;38.164;2023-06-26T06:24:38;27.63;60.93
75685;HTU21D;64298;46.050;38.164;2023-06-26T06:27:04;27.70;60.89
75685;HTU21D;64298;46.050;38.164;2023-06-26T06:29:30;27.79;60.82
75685;HTU21D;64298;46.050;38.164;2023-06-26T06:31:56;27.83;60.67
75685;HTU21D;64298;46.050;38.164;2023-06-26T06:34:22;27.85;60.64
75685;HTU21D;64298;46.050;38.164;2023-06-26T06:37:07;27.90;60.54
75685;HTU21D;64298;46.050;38.164;2023-06-26T06:39:33;27.98;60.09
75685;HTU21D;64298;46.050;38.164;2023-06-26T06:41:59;28.05;59.79
75685;HTU21D;64298;46.050;38.164;2023-06-26T06:44:25;28.14;59.51
75685;HTU21D;64298;46.050;38.164;2023-06-26T06:46:51;28.19;59.37
75685;HTU21D;64298;46.050;38.164;2023-06-26T06:49:16;28.27;59.07
75685;HTU21D;64298;46.050;38.164;2023-06-26T06:51:42;28.34;58.88
75685;HTU21D;64298;46.050;38.164;2023-06-26T06:54:26;28.45;58.19
75685;HTU21D;64298;46.050;38.164;2023-06-26T06:56:53;28.44;58.22
75685;HTU21D;64298;46.050;38.164;2023-06-26T06:59:19;28.45;58.04
75685;HTU21D;64298;46.050;38.164;2023-06-26T07:01:45;28.52;57.48
75685;HTU21D;64298;46.050;38.164;2023-06-26T07:04:11;28.58;57.28
75685;HTU21D;64298;46.050;38.164;2023-06-26T07:06:37;28.63;56.91
75685;HTU21D;64298;46.050;38.164;2023-06-26T07:09:03;28.64;56.26
75685;HTU21D;64298;46.050;38.164;2023-06-26T07:11:29;28.62;55.68
75685;HTU21D;64298;46.050;38.164;2023-06-26T07:13:55;28.63;55.51
75685;HTU21D;64298;46.050;38.164;2023-06-26T07:16:21;28.65;55.20
75685;HTU21D;64298;46.050;38.164;2023-06-26T07:18:47;28.69;54.23
75685;HTU21D;64298;46.050;38.164;2023-06-26T07:21:14;28.68;53.96
75685;HTU21D;64298;46.050;38.164;2023-06-26T07:23:40;28.62;53.78
75685;HTU21D;64298;46.050;38.164;2023-06-26T07:26:06;28.62;54.13
75685;HTU21D;64298;46.050;38.164;2023-06-26T07:28:32;28.70;54.28
75685;HTU21D;64298;46.050;38.164;2023-06-26T07:30:58;28.82;54.04
75685;HTU21D;64298;46.050;38.164;2023-06-26T07:33:24;28.95;53.86
75685;HTU21D;64298;46.050;38.164;2023-06-26T07:35:50;29.06;53.53
75685;HTU21D;64298;46.050;38.164;2023-06-26T07:38:16;29.16;53.10
75685;HTU21D;64298;46.050;38.164;2023-06-26T07:40:42;29.21;52.65
75685;HTU21D;64298;46.050;38.164;2023-06-26T07:43:07;29.23;52.73
75685;HTU21D;64298;46.050;38.164;2023-06-26T07:45:33;29.28;52.75
75685;HTU21D;64298;46.050;38.164;2023-06-26T07:47:59;29.37;52.49
75685;HTU21D;64298;46.050;38.164;2023-06-26T07:50:25;29.43;52.27
75685;HTU21D;64298;46.050;38.164;2023-06-26T07:52:51;29.46;51.71
75685;HTU21D;64298;46.050;38.164;2023-06-26T07:55:18;29.50;52.04
75685;HTU21D;64298;46.050;38.164;2023-06-26T07:57:44;29.58;51.40
75685;HTU21D;64298;46.050;38.164;2023-06-26T08:00:11;29.66;51.39
75685;HTU21D;64298;46.050;38.164;2023-06-26T08:02:40;29.81;51.36
75685;HTU21D;64298;46.050;38.164;2023-06-26T08:05:06;30.02;50.73
75685;HTU21D;64298;46.050;38.164;2023-06-26T08:07:32;30.23;48.76
75685;HTU21D;64298;46.050;38.164;2023-06-26T08:09:58;30.68;47.57
75685;HTU21D;64298;46.050;38.164;2023-06-26T08:12:24;31.23;46.02
75685;HTU21D;64298;46.050;38.164;2023-06-26T08:14:50;31.72;45.09
75685;HTU21D;64298;46.050;38.164;2023-06-26T08:17:16;32.07;44.51
75685;HTU21D;64298;46.050;38.164;2023-06-26T08:19:42;32.31;43.90
75685;HTU21D;64298;46.050;38.164;2023-06-26T08:22:07;32.53;43.94
75685;HTU21D;64298;46.050;38.164;2023-06-26T08:24:33;32.63;44.03
75685;HTU21D;64298;46.050;38.164;2023-06-26T08:26:59;32.61;43.51
75685;HTU21D;64298;46.050;38.164;2023-06-26T08:29:25;32.47;42.87
75685;HTU21D;64298;46.050;38.164;2023-06-26T08:31:51;32.42;43.63
75685;HTU21D;64298;46.050;38.164;2023-06-26T08:34:17;32.47;43.18
75685;HTU21D;64298;46.050;38.164;2023-06-26T08:36:43;32.56;43.07
75685;HTU21D;64298;46.050;38.164;2023-06-26T08:39:10;32.58;43.26
75685;HTU21D;64298;46.050;38.164;2023-06-26T08:41:37;32.53;42.66
75685;HTU21D;64298;46.050;38.164;2023-06-26T08:44:03;32.43;42.12
75685;HTU21D;64298;46.050;38.164;2023-06-26T08:46:30;32.44;41.69
75685;HTU21D;64298;46.050;38.164;2023-06-26T08:48:59;32.38;39.86
75685;HTU21D;64298;46.050;38.164;2023-06-26T08:51:28;32.31;41.07
75685;HTU21D;64298;46.050;38.164;2023-06-26T08:53:56;32.30;41.33
75685;HTU21D;64298;46.050;38.164;2023-06-26T08:56:24;32.35;40.71
75685;HTU21D;64298;46.050;38.164;2023-06-26T08:58:52;32.32;38.47
75685;HTU21D;64298;46.050;38.164;2023-06-26T09:01:20;32.37;38.85
75685;HTU21D;64298;46.050;38.164;2023-06-26T09:03:46;32.32;39.34
75685;HTU21D;64298;46.050;38.164;2023-06-26T09:06:12;32.35;38.72
75685;HTU21D;64298;46.050;38.164;2023-06-26T09:08:38;32.47;37.88
75685;HTU21D;64298;46.050;38.164;2023-06-26T09:11:04;32.58;38.36
75685;HTU21D;64298;46.050;38.164;2023-06-26T09:13:30;32.66;38.49
75685;HTU21D;64298;46.050;38.164;2023-06-26T09:15:57;32.63;37.98
75685;HTU21D;64298;46.050;38.164;2023-06-26T09:18:24;32.70;38.61
75685;HTU21D;64298;46.050;38.164;2023-06-26T09:20:50;32.86;38.65
75685;HTU21D;64298;46.050;38.164;2023-06-26T09:23:16;33.01;38.40
75685;HTU21D;64298;46.050;38.164;2023-06-26T09:25:42;33.11;37.98
75685;HTU21D;64298;46.050;38.164;2023-06-26T09:28:10;33.21;38.53
75685;HTU21D;64298;46.050;38.164;2023-06-26T09:30:36;33.17;38.51
75685;HTU21D;64298;46.050;38.164;2023-06-26T09:33:15;33.08;38.96
75685;HTU21D;64298;46.050;38.164;2023-06-26T09:35:41;33.12;39.41
75685;HTU21D;64298;46.050;38.164;2023-06-26T09:38:07;33.06;39.50
75685;HTU21D;64298;46.050;38.164;2023-06-26T09:40:33;33.05;39.72
75685;HTU21D;64298;46.050;38.164;2023-06-26T09:43:09;33.11;39.74
75685;HTU21D;64298;46.050;38.164;2023-06-26T09:45:36;33.06;39.97
75685;HTU21D;64298;46.050;38.164;2023-06-26T09:48:05;33.08;39.72
75685;HTU21D;64298;46.050;38.164;2023-06-26T09:50:32;33.11;38.98
75685;HTU21D;64298;46.050;38.164;2023-06-26T09:53:11;33.06;38.01
75685;HTU21D;64298;46.050;38.164;2023-06-26T09:55:41;33.06;38.07
75685;HTU21D;64298;46.050;38.164;2023-06-26T09:58:12;33.09;37.60
75685;HTU21D;64298;46.050;38.164;2023-06-26T10:00:44;33.17;38.39
75685;HTU21D;64298;46.050;38.164;2023-06-26T10:03:13;33.16;39.04
75685;HTU21D;64298;46.050;38.164;2023-06-26T10:05:40;33.08;39.33
75685;HTU21D;64298;46.050;38.164;2023-06-26T10:08:06;32.92;40.07
75685;HTU21D;64298;46.050;38.164;2023-06-26T10:10:37;32.87;40.37
75685;HTU21D;64298;46.050;38.164;2023-06-26T10:13:31;32.76;42.53
75685;HTU21D;64298;46.050;38.164;2023-06-26T10:16:00;32.72;44.07
75685;HTU21D;64298;46.050;38.164;2023-06-26T10:18:28;32.68;45.28
75685;HTU21D;64298;46.050;38.164;2023-06-26T10:20:57;32.52;46.05
75685;HTU21D;64298;46.050;38.164;2023-06-26T10:23:23;32.39;46.33
75685;HTU21D;64298;46.050;38.164;2023-06-26T10:25:52;32.39;47.01
75685;HTU21D;64298;46.050;38.164;2023-06-26T10:28:20;32.42;46.86
75685;HTU21D;64298;46.050;38.164;2023-06-26T10:30:46;32.43;47.24
75685;HTU21D;64298;46.050;38.164;2023-06-26T10:33:15;32.42;47.15
75685;HTU21D;64298;46.050;38.164;2023-06-26T10:35:45;32.34;47.63
75685;HTU21D;64298;46.050;38.164;2023-06-26T10:38:11;32.39;47.81
75685;HTU21D;64298;46.050;38.164;2023-06-26T10:40:47;32.50;47.57
75685;HTU21D;64298;46.050;38.164;2023-06-26T10:43:17;32.59;47.44
75685;HTU21D;64298;46.050;38.164;2023-06-26T10:45:47;32.68;47.15
75685;HTU21D;64298;46.050;38.164;2023-06-26T10:48:18;32.79;47.11
75685;HTU21D;64298;46.050;38.164;2023-06-26T10:50:47;32.89;46.96
75685;HTU21D;64298;46.050;38.164;2023-06-26T10:55:59;32.88;45.91
75685;HTU21D;64298;46.050;38.164;2023-06-26T11:03:38;32.88;44.09
75685;HTU21D;64298;46.050;38.164;2023-06-26T11:11:15;32.87;43.29
75685;HTU21D;64298;46.050;38.164;2023-06-26T11:13:41;32.96;43.20
75685;HTU21D;64298;46.050;38.164;2023-06-26T11:16:07;33.00;42.84
75685;HTU21D;64298;46.050;38.164;2023-06-26T11:18:34;32.93;42.46
75685;HTU21D;64298;46.050;38.164;2023-06-26T11:21:11;33.00;42.75
75685;HTU21D;64298;46.050;38.164;2023-06-26T11:23:39;33.02;42.73
75685;HTU21D;64298;46.050;38.164;2023-06-26T11:26:19;33.08;42.92
75685;HTU21D;64298;46.050;38.164;2023-06-26T11:28:51;33.13;41.59
75685;HTU21D;64298;46.050;38.164;2023-06-26T11:31:27;32.98;42.11
75685;HTU21D;64298;46.050;38.164;2023-06-26T11:33:56;32.89;42.48
75685;HTU21D;64298;46.050;38.164;2023-06-26T11:36:26;32.81;42.92
75685;HTU21D;64298;46.050;38.164;2023-06-26T11:38:56;32.77;42.38
75685;HTU21D;64298;46.050;38.164;2023-06-26T11:41:24;32.69;42.58
75685;HTU21D;64298;46.050;38.164;2023-06-26T11:43:51;32.56;42.70
75685;HTU21D;64298;46.050;38.164;2023-06-26T11:46:21;32.40;42.94
75685;HTU21D;64298;46.050;38.164;2023-06-26T11:48:47;32.24;43.64
75685;HTU21D;64298;46.050;38.164;2023-06-26T11:51:14;32.05;44.44
75685;HTU21D;64298;46.050;38.164;2023-06-26T11:53:42;31.92;44.75
75685;HTU21D;64298;46.050;38.164;2023-06-26T11:56:13;31.87;45.39
75685;HTU21D;64298;46.050;38.164;2023-06-26T11:59:04;31.83;45.15
75685;HTU21D;64298;46.050;38.164;2023-06-26T12:01:41;31.90;44.97
75685;HTU21D;64298;46.050;38.164;2023-06-26T12:04:09;32.00;44.87
75685;HTU21D;64298;46.050;38.164;2023-06-26T12:06:37;32.07;44.23
75685;HTU21D;64298;46.050;38.164;2023-06-26T12:09:11;32.07;45.13
75685;HTU21D;64298;46.050;38.164;2023-06-26T12:11:40;32.10;46.47
75685;HTU21D;64298;46.050;38.164;2023-06-26T12:14:06;32.10;46.60
75685;HTU21D;64298;46.050;38.164;2023-06-26T12:16:34;32.10;45.41
75685;HTU21D;64298;46.050;38.164;2023-06-26T12:19:02;32.05;44.66
75685;HTU21D;64298;46.050;38.164;2023-06-26T12:24:07;31.84;45.35
75685;HTU21D;64298;46.050;38.164;2023-06-26T12:26:34;31.82;45.89
75685;HTU21D;64298;46.050;38.164;2023-06-26T12:29:10;31.76;47.08
75685;HTU21D;64298;46.050;38.164;2023-06-26T12:31:44;31.58;48.37
75685;HTU21D;64298;46.050;38.164;2023-06-26T12:34:13;31.35;50.37
75685;HTU21D;64298;46.050;38.164;2023-06-26T12:36:45;31.13;51.16
75685;HTU21D;64298;46.050;38.164;2023-06-26T12:39:12;31.05;52.07
75685;HTU21D;64298;46.050;38.164;2023-06-26T12:41:45;30.95;53.38
75685;HTU21D;64298;46.050;38.164;2023-06-26T12:44:25;30.95;53.96
75685;HTU21D;64298;46.050;38.164;2023-06-26T12:46:59;30.96;54.99
75685;HTU21D;64298;46.050;38.164;2023-06-26T12:49:45;30.94;55.86
75685;HTU21D;64298;46.050;38.164;2023-06-26T12:52:16;30.91;56.55
75685;HTU21D;64298;46.050;38.164;2023-06-26T12:54:43;30.86;56.62
75685;HTU21D;64298;46.050;38.164;2023-06-26T12:57:09;30.87;56.32
75685;HTU21D;64298;46.050;38.164;2023-06-26T12:59:37;30.81;56.68
75685;HTU21D;64298;46.050;38.164;2023-06-26T13:02:04;30.79;56.36
75685;HTU21D;64298;46.050;38.164;2023-06-26T13:04:30;30.68;55.97
75685;HTU21D;64298;46.050;38.164;2023-06-26T13:06:56;30.57;56.44
75685;HTU21D;64298;46.050;38.164;2023-06-26T13:09:23;30.49;57.17
75685;HTU21D;64298;46.050;38.164;2023-06-26T13:11:51;30.33;58.03
75685;HTU21D;64298;46.050;38.164;2023-06-26T13:14:17;30.30;58.67
75685;HTU21D;64298;46.050;38.164;2023-06-26T13:16:43;30.35;58.01
75685;HTU21D;64298;46.050;38.164;2023-06-26T13:19:09;30.30;57.68
75685;HTU21D;64298;46.050;38.164;2023-06-26T13:21:35;30.25;58.22
75685;HTU21D;64298;46.050;38.164;2023-06-26T13:24:02;30.30;58.16
75685;HTU21D;64298;46.050;38.164;2023-06-26T13:26:30;30.28;58.24
75685;HTU21D;64298;46.050;38.164;2023-06-26T13:28:56;30.31;57.74
75685;HTU21D;64298;46.050;38.164;2023-06-26T13:31:22;30.36;57.68
75685;HTU21D;64298;46.050;38.164;2023-06-26T13:33:48;30.47;57.01
75685;HTU21D;64298;46.050;38.164;2023-06-26T13:36:15;30.46;56.84
75685;HTU21D;64298;46.050;38.164;2023-06-26T13:38:41;30.41;57.29
75685;HTU21D;64298;46.050;38.164;2023-06-26T13:41:07;30.41;57.52
75685;HTU21D;64298;46.050;38.164;2023-06-26T13:43:33;30.48;57.78
75685;HTU21D;64298;46.050;38.164;2023-06-26T13:46:00;30.48;57.55
75685;HTU21D;64298;46.050;38.164;2023-06-26T13:48:26;30.46;57.90
75685;HTU21D;64298;46.050;38.164;2023-06-26T13:50:52;30.48;58.73
75685;HTU21D;64298;46.050;38.164;2023-06-26T13:53:18;30.42;58.55
75685;HTU21D;64298;46.050;38.164;2023-06-26T13:55:45;30.25;58.57
75685;HTU21D;64298;46.050;38.164;2023-06-26T13:58:11;30.22;58.73
75685;HTU21D;64298;46.050;38.164;2023-06-26T14:00:39;30.18;59.13
75685;HTU21D;64298;46.050;38.164;2023-06-26T14:03:06;30.20;59.17
75685;HTU21D;64298;46.050;38.164;2023-06-26T14:05:34;30.27;58.71
75685;HTU21D;64298;46.050;38.164;2023-06-26T14:08:03;30.33;57.90
75685;HTU21D;64298;46.050;38.164;2023-06-26T14:10:30;30.34;57.84
75685;HTU21D;64298;46.050;38.164;2023-06-26T14:12:59;30.39;57.67
75685;HTU21D;64298;46.050;38.164;2023-06-26T14:15:25;30.47;57.19
75685;HTU21D;64298;46.050;38.164;2023-06-26T14:17:51;30.49;57.16
75685;HTU21D;64298;46.050;38.164;2023-06-26T14:20:18;30.50;56.74
75685;HTU21D;64298;46.050;38.164;2023-06-26T14:22:46;30.51;56.71
75685;HTU21D;64298;46.050;38.164;2023-06-26T14:25:13;30.51;56.72
75685;HTU21D;64298;46.050;38.164;2023-06-26T14:27:39;30.48;56.56
75685;HTU21D;64298;46.050;38.164;2023-06-26T14:30:06;30.44;56.54
75685;HTU21D;64298;46.050;38.164;2023-06-26T14:32:33;30.40;56.23
75685;HTU21D;64298;46.050;38.164;2023-06-26T14:35:17;30.35;55.89
75685;HTU21D;64298;46.050;38.164;2023-06-26T14:37:44;30.34;55.51
75685;HTU21D;64298;46.050;38.164;2023-06-26T14:40:10;30.34;55.45
75685;HTU21D;64298;46.050;38.164;2023-06-26T14:42:36;30.34;55.75
75685;HTU21D;64298;46.050;38.164;2023-06-26T14:45:03;30.34;55.45
75685;HTU21D;64298;46.050;38.164;2023-06-26T14:47:29;30.33;55.05
75685;HTU21D;64298;46.050;38.164;2023-06-26T14:49:55;30.28;55.42
75685;HTU21D;64298;46.050;38.164;2023-06-26T14:52:39;30.32;55.66
75685;HTU21D;64298;46.050;38.164;2023-06-26T14:55:05;30.36;55.49
75685;HTU21D;64298;46.050;38.164;2023-06-26T14:57:32;30.37;55.36
75685;HTU21D;64298;46.050;38.164;2023-06-26T14:59:58;30.37;55.31
75685;HTU21D;64298;46.050;38.164;2023-06-26T15:02:24;30.33;55.69
75685;HTU21D;64298;46.050;38.164;2023-06-26T15:04:50;30.32;55.83
75685;HTU21D;64298;46.050;38.164;2023-06-26T15:07:16;30.28;55.60
75685;HTU21D;64298;46.050;38.164;2023-06-26T15:09:42;30.20;55.58
75685;HTU21D;64298;46.050;38.164;2023-06-26T15:12:08;30.12;55.65
75685;HTU21D;64298;46.050;38.164;2023-06-26T15:14:34;30.10;55.46
75685;HTU21D;64298;46.050;38.164;2023-06-26T15:16:59;30.08;55.67
75685;HTU21D;64298;46.050;38.164;2023-06-26T15:19:44;30.03;55.59
75685;HTU21D;64298;46.050;38.164;2023-06-26T15:22:10;30.00;55.71
75685;HTU21D;64298;46.050;38.164;2023-06-26T15:24:36;29.95;55.70
75685;HTU21D;64298;46.050;38.164;2023-06-26T15:27:02;29.95;55.81
75685;HTU21D;64298;46.050;38.164;2023-06-26T15:29:28;29.95;55.60
75685;HTU21D;64298;46.050;38.164;2023-06-26T15:31:54;29.85;55.53
75685;HTU21D;64298;46.050;38.164;2023-06-26T15:34:19;29.82;55.83